createdAt,value
2022-11-29T00:02:37.148Z,87.80
2022-11-29T00:05:40.064Z,87.84
2022-11-29T00:08:43.219Z,88.10
2022-11-29T00:12:05.395Z,87.98
2022-11-29T00:15:11.064Z,88.24
2022-11-29T00:18:13.932Z,88.74
2022-11-29T00:21:16.518Z,88.40
2022-11-29T00:24:20.062Z,88.68
2022-11-29T00:27:22.734Z,88.75
2022-11-29T00:30:25.896Z,88.84
2022-11-29T00:33:29.312Z,89.35
2022-11-29T00:36:32.475Z,89.02
2022-11-29T00:39:35.027Z,89.13
2022-11-29T00:42:40.408Z,89.27
2022-11-29T00:45:43.054Z,89.80
2022-11-29T00:48:46.490Z,89.71
2022-11-29T00:51:49.149Z,90.12
2022-11-29T00:54:52.012Z,89.73
2022-11-29T00:57:54.668Z,89.75
2022-11-29T01:00:58.292Z,89.67
2022-11-29T01:04:04.423Z,89.85
2022-11-29T01:07:07.293Z,90.29
2022-11-29T01:10:10.347Z,90.13
2022-11-29T01:13:14.526Z,90.12
2022-11-29T01:16:17.617Z,90.21
2022-11-29T01:19:20.484Z,90.34
2022-11-29T01:22:23.139Z,90.31
2022-11-29T01:25:26.254Z,90.42
2022-11-29T01:28:29.133Z,90.26
2022-11-29T01:31:38.080Z,90.45
2022-11-29T01:34:41.180Z,90.67
2022-11-29T01:37:44.334Z,90.63
2022-11-29T01:40:58.279Z,90.66
2022-11-29T01:44:05.130Z,91.08
2022-11-29T01:47:11.039Z,91.08
2022-11-29T01:50:15.452Z,91.33
2022-11-29T01:53:18.256Z,91.57
2022-11-29T01:56:22.336Z,91.74
2022-11-29T01:59:28.480Z,91.92
2022-11-29T02:02:35.995Z,92.12
2022-11-29T02:05:42.660Z,92.01
2022-11-29T02:08:45.334Z,91.68
2022-11-29T02:12:17.553Z,91.96
2022-11-29T02:16:03.502Z,92.04
2022-11-29T02:19:50.411Z,92.32
2022-11-29T02:23:08.049Z,92.48
2022-11-29T02:26:32.480Z,92.63
2022-11-29T02:30:12.070Z,92.84
2022-11-29T02:33:36.230Z,92.99
2022-11-29T02:36:46.190Z,93.02
2022-11-29T02:40:01.484Z,93.14
2022-11-29T02:43:41.426Z,93.47
2022-11-29T02:47:16.170Z,93.62
2022-11-29T02:50:29.791Z,93.62
2022-11-29T02:53:38.501Z,93.46
2022-11-29T02:56:47.377Z,93.60
2022-11-29T03:00:02.736Z,93.66
2022-11-29T03:03:24.113Z,93.58
2022-11-29T03:07:04.779Z,93.73
2022-11-29T03:10:22.685Z,93.56
2022-11-29T03:13:34.285Z,93.41
2022-11-29T03:16:43.334Z,93.54
2022-11-29T03:19:47.745Z,93.70
2022-11-29T03:23:09.185Z,93.59
2022-11-29T03:26:19.090Z,93.46
2022-11-29T03:29:36.706Z,93.61
2022-11-29T03:32:57.532Z,93.44
2022-11-29T03:36:24.721Z,93.53
2022-11-29T03:39:42.862Z,93.41
2022-11-29T03:42:53.544Z,93.33
2022-11-29T03:46:03.480Z,93.26
2022-11-29T03:49:36.040Z,93.29
2022-11-29T03:52:50.667Z,93.46
2022-11-29T03:55:59.110Z,93.20
2022-11-29T03:59:26.535Z,93.11
2022-11-29T04:02:56.935Z,93.04
2022-11-29T04:06:18.493Z,92.86
2022-11-29T04:09:42.794Z,92.77
2022-11-29T04:13:04.321Z,92.70
2022-11-29T04:16:19.147Z,92.86
2022-11-29T04:19:52.641Z,92.83
2022-11-29T04:23:23.282Z,92.60
2022-11-29T04:26:47.756Z,92.66
2022-11-29T04:30:08.272Z,92.80
2022-11-29T04:33:47.710Z,92.95
2022-11-29T04:36:52.955Z,92.92
2022-11-29T04:40:25.172Z,93.11
2022-11-29T04:43:36.550Z,93.27
2022-11-29T04:47:16.859Z,93.20
2022-11-29T04:50:27.030Z,93.16
2022-11-29T04:53:29.918Z,92.98
2022-11-29T04:57:06.658Z,92.81
2022-11-29T05:00:12.489Z,92.57
2022-11-29T05:03:28.056Z,92.72
2022-11-29T05:06:39.706Z,93.00
2022-11-29T05:10:04.881Z,93.12
2022-11-29T05:13:18.505Z,93.08
2022-11-29T05:16:30.328Z,93.14
2022-11-29T05:19:58.729Z,93.15
2022-11-29T05:23:08.412Z,93.25
2022-11-29T05:26:16.575Z,93.35
2022-11-29T05:29:49.091Z,93.45
2022-11-29T05:33:10.328Z,93.36
2022-11-29T05:36:43.822Z,93.32
2022-11-29T05:39:55.792Z,93.36
2022-11-29T05:43:18.638Z,93.10
2022-11-29T05:46:38.982Z,92.84
2022-11-29T05:50:11.181Z,92.73
2022-11-29T05:53:32.916Z,92.56
2022-11-29T05:56:57.687Z,92.69
2022-11-29T06:00:05.621Z,92.67
2022-11-29T06:03:24.835Z,92.68
2022-11-29T06:07:08.432Z,92.68
2022-11-29T06:10:19.962Z,92.62
2022-11-29T06:14:01.568Z,92.31
2022-11-29T06:17:10.089Z,92.50
2022-11-29T06:20:33.167Z,92.65
2022-11-29T06:23:53.969Z,92.95
2022-11-29T06:27:38.927Z,93.15
2022-11-29T06:31:14.706Z,93.35
2022-11-29T06:34:40.521Z,93.30
2022-11-29T06:37:49.207Z,92.94
2022-11-29T06:40:56.030Z,92.83
2022-11-29T06:44:03.424Z,92.83
2022-11-29T06:47:32.476Z,92.90
2022-11-29T06:51:01.740Z,93.17
2022-11-29T06:54:11.358Z,93.27
2022-11-29T06:57:55.851Z,93.15
2022-11-29T07:01:26.136Z,92.73
2022-11-29T07:05:08.037Z,92.39
2022-11-29T07:08:23.484Z,92.16
2022-11-29T07:11:26.783Z,92.13
2022-11-29T07:14:29.993Z,92.33
2022-11-29T07:17:42.673Z,92.40
2022-11-29T07:20:48.460Z,92.88
2022-11-29T07:24:03.208Z,92.67
2022-11-29T07:27:18.640Z,92.62
2022-11-29T07:30:29.690Z,92.32
2022-11-29T07:34:03.651Z,92.16
2022-11-29T07:37:40.134Z,91.71
2022-11-29T07:40:49.601Z,91.23
2022-11-29T07:44:01.024Z,91.32
2022-11-29T07:47:04.379Z,91.66
2022-11-29T07:50:08.054Z,91.96
2022-11-29T07:53:17.553Z,91.81
2022-11-29T07:56:20.195Z,91.75
2022-11-29T07:59:23.082Z,91.38
2022-11-29T08:02:32.180Z,91.10
2022-11-29T08:05:36.222Z,90.91
2022-11-29T08:08:43.679Z,90.84
2022-11-29T08:11:49.016Z,90.65
2022-11-29T08:14:51.674Z,90.58
2022-11-29T08:17:54.712Z,90.20
2022-11-29T08:20:57.259Z,89.97
2022-11-29T08:24:00.240Z,90.10
2022-11-29T08:27:04.375Z,89.76
2022-11-29T08:30:08.187Z,89.40
2022-11-29T08:33:12.198Z,89.14
2022-11-29T08:36:18.086Z,88.92
2022-11-29T08:39:20.701Z,89.01
2022-11-29T08:42:23.950Z,88.95
2022-11-29T08:45:26.652Z,88.69
2022-11-29T08:48:29.598Z,88.47
2022-11-29T08:51:32.225Z,88.43
2022-11-29T08:54:36.550Z,88.46
2022-11-29T08:57:40.746Z,88.38
2022-11-29T09:00:47.278Z,88.55
2022-11-29T09:04:07.251Z,88.04
2022-11-29T09:07:12.408Z,88.06
2022-11-29T09:10:15.032Z,88.26
2022-11-29T09:13:18.367Z,88.22
2022-11-29T09:16:25.619Z,88.06
2022-11-29T09:19:28.818Z,87.91
2022-11-29T09:22:31.701Z,87.59
2022-11-29T09:25:34.598Z,87.33
2022-11-29T09:28:37.832Z,87.11
2022-11-29T09:31:40.830Z,86.07
2022-11-29T09:34:43.622Z,85.36
2022-11-29T09:37:46.823Z,85.06
2022-11-29T09:40:56.234Z,84.51
2022-11-29T09:44:21.622Z,83.99
2022-11-29T09:47:42.647Z,83.86
2022-11-29T09:50:54.255Z,82.69
2022-11-29T09:54:09.300Z,82.29
2022-11-29T09:57:14.251Z,81.65
2022-11-29T10:00:20.175Z,81.35
2022-11-29T10:03:25.825Z,80.83
2022-11-29T10:06:40.598Z,80.87
2022-11-29T10:09:52.129Z,79.26
2022-11-29T10:13:16.007Z,80.59
2022-11-29T10:16:34.117Z,80.71
2022-11-29T10:19:54.301Z,80.28
2022-11-29T10:23:09.672Z,80.47
2022-11-29T10:26:13.439Z,81.61
2022-11-29T10:29:17.229Z,81.21
2022-11-29T10:32:21.583Z,81.35
2022-11-29T10:35:25.201Z,82.02
2022-11-29T10:38:31.073Z,81.49
2022-11-29T10:41:35.877Z,81.50
2022-11-29T10:44:38.459Z,81.05
2022-11-29T10:47:41.680Z,80.79
2022-11-29T10:50:48.657Z,80.71
2022-11-29T10:53:54.887Z,79.77
2022-11-29T10:57:00.290Z,79.95
2022-11-29T11:00:11.697Z,79.79
2022-11-29T11:03:27.536Z,78.72
2022-11-29T11:06:52.394Z,77.70
2022-11-29T11:09:57.971Z,75.29
2022-11-29T11:13:08.298Z,75.62
2022-11-29T11:16:17.991Z,75.41
2022-11-29T11:19:32.545Z,75.43
2022-11-29T11:22:39.968Z,74.91
2022-11-29T11:25:42.984Z,74.30
2022-11-29T11:28:59.753Z,73.61
2022-11-29T11:32:04.902Z,75.03
2022-11-29T11:35:23.079Z,75.40
2022-11-29T11:38:26.127Z,75.50
2022-11-29T11:41:56.998Z,75.76
2022-11-29T11:45:01.213Z,76.23
2022-11-29T11:48:14.505Z,76.51
2022-11-29T11:51:24.582Z,76.79
2022-11-29T11:54:29.863Z,76.67
2022-11-29T11:57:33.000Z,76.74
2022-11-29T12:01:06.415Z,77.44
2022-11-29T12:04:23.905Z,76.94
2022-11-29T12:11:15.725Z,74.89
2022-11-29T12:14:30.427Z,74.19
2022-11-29T12:18:02.629Z,74.58
2022-11-29T12:21:27.731Z,75.32
2022-11-29T12:24:39.249Z,74.81
2022-11-29T12:27:41.902Z,74.71
2022-11-29T12:31:00.037Z,74.65
2022-11-29T12:34:33.613Z,74.77
2022-11-29T12:37:56.383Z,74.28
2022-11-29T12:41:26.170Z,73.91
2022-11-29T12:45:04.168Z,72.50
2022-11-29T12:48:19.160Z,70.99
2022-11-29T12:51:34.906Z,69.24
2022-11-29T12:55:08.328Z,66.41
2022-11-29T12:58:19.159Z,65.20
2022-11-29T13:01:40.038Z,63.07
2022-11-29T13:04:55.039Z,63.51
2022-11-29T13:08:33.640Z,62.42
2022-11-29T13:11:41.252Z,62.37
2022-11-29T13:15:00.053Z,62.11
2022-11-29T13:18:15.905Z,62.72
2022-11-29T13:21:34.908Z,64.15
2022-11-29T13:24:49.308Z,65.77
2022-11-29T13:28:00.384Z,66.98
2022-11-29T13:31:08.441Z,67.54
2022-11-29T13:34:42.822Z,69.05
2022-11-29T13:38:01.311Z,69.87
2022-11-29T13:41:28.900Z,69.75
2022-11-29T13:44:48.003Z,69.86
2022-11-29T13:47:58.874Z,69.96
2022-11-29T13:51:37.815Z,70.60
2022-11-29T13:54:40.425Z,71.19
2022-11-29T13:58:17.484Z,71.38
2022-11-29T14:01:21.859Z,71.76
2022-11-29T14:04:46.085Z,71.80
2022-11-29T14:08:26.735Z,72.40
2022-11-29T14:11:50.740Z,72.57
2022-11-29T14:15:24.627Z,72.99
2022-11-29T14:18:36.762Z,73.04
2022-11-29T14:22:07.359Z,73.68
2022-11-29T14:28:47.178Z,74.80
2022-11-29T14:31:51.938Z,75.29
2022-11-29T14:35:09.998Z,75.77
2022-11-29T14:38:31.256Z,76.52
2022-11-29T14:41:52.312Z,77.06
2022-11-29T14:45:00.822Z,77.24
2022-11-29T14:48:03.678Z,78.02
2022-11-29T14:51:09.663Z,78.36
2022-11-29T14:54:18.523Z,78.42
2022-11-29T14:58:06.184Z,79.06
2022-11-29T15:01:11.013Z,79.71
2022-11-29T15:04:14.520Z,80.59
2022-11-29T15:07:23.471Z,80.70
2022-11-29T15:10:31.466Z,81.11
2022-11-29T15:13:37.078Z,81.51
2022-11-29T15:17:04.483Z,80.80
2022-11-29T15:20:20.031Z,81.77
2022-11-29T15:23:23.057Z,81.95
2022-11-29T15:26:25.583Z,81.73
2022-11-29T15:29:30.416Z,81.59
2022-11-29T15:32:33.567Z,81.60
2022-11-29T15:35:38.449Z,81.40
2022-11-29T15:39:08.518Z,81.14
2022-11-29T15:42:13.742Z,81.25
2022-11-29T15:45:35.258Z,81.97
2022-11-29T15:48:38.328Z,82.52
2022-11-29T15:51:41.481Z,82.26
2022-11-29T15:54:51.581Z,82.20
2022-11-29T15:57:57.884Z,81.81
2022-11-29T16:01:02.355Z,82.24
2022-11-29T16:04:05.815Z,82.40
2022-11-29T16:07:08.707Z,82.01
2022-11-29T16:10:16.844Z,81.78
2022-11-29T16:13:34.364Z,82.48
2022-11-29T16:16:42.225Z,82.75
2022-11-29T16:19:45.062Z,82.38
2022-11-29T16:23:04.762Z,83.60
2022-11-29T16:26:13.662Z,85.00
2022-11-29T16:29:38.360Z,84.62
2022-11-29T16:32:44.547Z,85.04
2022-11-29T16:35:48.535Z,85.31
2022-11-29T16:38:54.831Z,85.91
2022-11-29T16:42:12.987Z,85.65
2022-11-29T16:45:35.255Z,85.63
2022-11-29T16:51:59.158Z,85.70
2022-11-29T16:55:02.491Z,85.87
2022-11-29T16:58:05.220Z,86.00
2022-11-29T17:01:19.832Z,84.90
2022-11-29T17:04:23.895Z,86.27
2022-11-29T17:07:35.403Z,87.80
2022-11-29T17:10:38.478Z,88.22
2022-11-29T17:13:41.475Z,88.25
2022-11-29T17:16:47.781Z,88.74
2022-11-29T17:19:50.695Z,88.20
2022-11-29T17:22:55.537Z,87.21
2022-11-29T17:25:59.868Z,88.11
2022-11-29T17:29:02.485Z,89.51
2022-11-29T17:32:05.615Z,88.52
2022-11-29T17:35:08.798Z,87.40
2022-11-29T17:38:11.752Z,88.48
2022-11-29T17:41:18.398Z,88.37
2022-11-29T17:44:21.725Z,88.38
2022-11-29T17:47:24.679Z,88.29
2022-11-29T17:50:29.304Z,88.42
2022-11-29T17:53:33.637Z,88.47
2022-11-29T17:56:37.360Z,88.85
2022-11-29T17:59:40.377Z,88.66
2022-11-29T18:02:44.831Z,88.26
2022-11-29T18:05:48.030Z,87.89
2022-11-29T18:08:54.089Z,87.93
2022-11-29T18:12:00.566Z,89.90
2022-11-29T18:15:03.748Z,89.62
2022-11-29T18:18:06.804Z,89.12
2022-11-29T18:21:11.918Z,88.63
2022-11-29T18:24:15.297Z,89.24
2022-11-29T18:27:19.948Z,89.37
2022-11-29T18:30:23.496Z,89.21
2022-11-29T18:33:27.449Z,88.46
2022-11-29T18:36:33.804Z,88.45
2022-11-29T18:39:36.936Z,88.02
2022-11-29T18:42:40.440Z,88.27
2022-11-29T18:45:43.516Z,87.85
2022-11-29T18:48:48.319Z,88.96
2022-11-29T18:51:52.508Z,88.75
2022-11-29T18:54:56.291Z,89.30
2022-11-29T18:57:58.985Z,89.13
2022-11-29T19:01:17.245Z,88.61
2022-11-29T19:04:22.122Z,87.79
2022-11-29T19:07:27.758Z,87.60
2022-11-29T19:10:32.604Z,87.12
2022-11-29T19:13:39.851Z,86.92
2022-11-29T19:16:45.633Z,86.95
2022-11-29T19:19:49.183Z,87.00
2022-11-29T19:22:56.096Z,87.25
2022-11-29T19:26:10.269Z,87.73
2022-11-29T19:29:15.016Z,87.86
2022-11-29T19:32:19.184Z,88.95
2022-11-29T19:35:24.470Z,88.97
2022-11-29T19:38:28.999Z,88.91
2022-11-29T19:41:37.293Z,88.79
2022-11-29T19:45:15.220Z,88.22
2022-11-29T19:48:07.348Z,88.34
2022-11-29T19:51:13.528Z,88.17
2022-11-29T19:54:16.582Z,88.20
2022-11-29T19:57:20.100Z,87.99
2022-11-29T20:00:23.452Z,87.94
2022-11-29T20:03:26.896Z,88.37
2022-11-29T20:06:40.049Z,88.80
2022-11-29T20:09:43.663Z,89.05
2022-11-29T20:12:46.842Z,89.29
2022-11-29T20:15:50.445Z,88.59
2022-11-29T20:18:54.479Z,88.22
2022-11-29T20:21:58.044Z,87.99
2022-11-29T20:25:02.638Z,88.39
2022-11-29T20:28:07.986Z,88.09
2022-11-29T20:31:18.447Z,87.93
2022-11-29T20:34:22.075Z,88.03
2022-11-29T20:37:38.386Z,87.63
2022-11-29T20:41:11.713Z,87.91
2022-11-29T20:44:20.263Z,87.81
2022-11-29T20:47:33.078Z,87.72
2022-11-29T20:50:38.689Z,87.24
2022-11-29T20:53:44.457Z,87.28
2022-11-29T20:56:47.437Z,87.05
2022-11-29T20:59:50.893Z,87.11
2022-11-29T21:02:55.238Z,87.60
2022-11-29T21:06:04.242Z,87.82
2022-11-29T21:09:07.214Z,87.42
2022-11-29T21:12:11.184Z,87.93
2022-11-29T21:15:15.200Z,87.88
2022-11-29T21:18:27.388Z,87.62
2022-11-29T21:21:48.799Z,87.56
2022-11-29T21:24:58.161Z,88.96
2022-11-29T21:28:01.225Z,88.83
2022-11-29T21:31:04.670Z,88.79
2022-11-29T21:34:08.605Z,88.19
2022-11-29T21:37:11.544Z,87.45
2022-11-29T21:40:15.984Z,87.90
2022-11-29T21:43:20.702Z,87.43
2022-11-29T21:46:25.369Z,87.15
2022-11-29T21:49:29.316Z,86.89
2022-11-29T21:52:31.819Z,87.22
2022-11-29T21:55:34.738Z,87.67
2022-11-29T21:58:38.746Z,88.33
2022-11-29T22:01:41.824Z,88.03
2022-11-29T22:04:45.569Z,88.14
2022-11-29T22:07:49.488Z,88.37
2022-11-29T22:11:01.006Z,88.07
2022-11-29T22:14:15.741Z,88.03
2022-11-29T22:17:18.635Z,88.31
2022-11-29T22:20:21.512Z,88.34
2022-11-29T22:23:26.712Z,88.42
2022-11-29T22:26:29.440Z,87.88
2022-11-29T22:29:33.518Z,87.49
2022-11-29T22:32:36.077Z,87.88
2022-11-29T22:35:45.390Z,87.72
2022-11-29T22:38:48.044Z,87.98
2022-11-29T22:41:55.033Z,87.81
2022-11-29T22:44:57.884Z,88.23
2022-11-29T22:48:00.826Z,88.19
2022-11-29T22:51:11.934Z,88.24
2022-11-29T22:54:18.156Z,88.08
2022-11-29T22:57:20.809Z,87.62
2022-11-29T23:00:26.365Z,87.73
2022-11-29T23:03:32.522Z,87.87
2022-11-29T23:06:41.028Z,88.04
2022-11-29T23:09:43.891Z,88.32
2022-11-29T23:12:49.754Z,88.41
2022-11-29T23:15:53.017Z,88.38
2022-11-29T23:18:58.360Z,87.90
2022-11-29T23:22:00.967Z,88.70
2022-11-29T23:25:04.112Z,88.22
2022-11-29T23:28:06.747Z,88.29
2022-11-29T23:31:10.910Z,88.60
2022-11-29T23:34:14.485Z,88.39
2022-11-29T23:37:18.457Z,89.17
2022-11-29T23:40:21.126Z,88.55
2022-11-29T23:43:24.498Z,88.72
2022-11-29T23:46:27.130Z,88.65
2022-11-29T23:49:29.971Z,88.76
2022-11-29T23:52:32.826Z,88.53
2022-11-29T23:55:35.674Z,88.02
2022-11-29T23:58:38.606Z,88.35
